createdAt,value
2023-05-19T00:00:34.692Z,451.6154
2023-05-19T00:01:35.777Z,451.3846
2023-05-19T00:02:37.289Z,452.6154
2023-05-19T00:03:38.728Z,451.3846
2023-05-19T00:04:40.141Z,451.1538
2023-05-19T00:05:41.514Z,451.6923
2023-05-19T00:06:42.959Z,451.6154
2023-05-19T00:07:44.355Z,451.3077
2023-05-19T00:08:45.886Z,451.3846
2023-05-19T00:09:47.269Z,452.4615
2023-05-19T00:10:48.643Z,451.3077
2023-05-19T00:11:50.032Z,450.6154
2023-05-19T00:12:53.725Z,449.1538
2023-05-19T00:13:52.906Z,448.3077
2023-05-19T00:14:54.417Z,448.9231
2023-05-19T00:15:55.773Z,451.2308
2023-05-19T00:16:57.286Z,450.9231
2023-05-19T00:17:58.724Z,451.4615
2023-05-19T00:19:00.164Z,451.9231
2023-05-19T00:20:01.416Z,452.5385
2023-05-19T00:21:02.890Z,453.0000
2023-05-19T00:22:04.281Z,453.6923
2023-05-19T00:23:05.738Z,453.8462
2023-05-19T00:24:07.219Z,453.0000
2023-05-19T00:25:08.644Z,450.0000
2023-05-19T00:26:09.984Z,447.6154
2023-05-19T00:27:11.396Z,447.5385
2023-05-19T00:28:12.741Z,449.6154
2023-05-19T00:29:14.307Z,451.3846
2023-05-19T00:30:15.680Z,450.5385
2023-05-19T00:31:17.215Z,452.1538
2023-05-19T00:32:18.650Z,451.6154
2023-05-19T00:33:19.961Z,453.0000
2023-05-19T00:34:21.426Z,452.0000
2023-05-19T00:35:22.856Z,450.3846
2023-05-19T00:36:24.146Z,449.5385
2023-05-19T00:37:25.673Z,450.6154
2023-05-19T00:38:27.170Z,452.1538
2023-05-19T00:39:28.512Z,452.6923
2023-05-19T00:40:30.106Z,450.6923
2023-05-19T00:41:31.420Z,451.0000
2023-05-19T00:42:32.792Z,451.3077
2023-05-19T00:43:34.270Z,451.9231
2023-05-19T00:44:35.604Z,452.2308
2023-05-19T00:45:37.151Z,453.0000
2023-05-19T00:46:38.574Z,450.7692
2023-05-19T00:47:39.968Z,450.8462
2023-05-19T00:48:41.342Z,450.1538
2023-05-19T00:49:42.796Z,450.2308
2023-05-19T00:50:44.220Z,450.3077
2023-05-19T00:51:45.586Z,450.5385
2023-05-19T00:52:46.988Z,450.6923
2023-05-19T00:53:48.587Z,450.7692
2023-05-19T00:54:49.886Z,454.2308
2023-05-19T00:55:51.389Z,453.4615
2023-05-19T00:56:52.796Z,451.4615
2023-05-19T00:57:54.201Z,451.1538
2023-05-19T00:58:55.654Z,452.0769
2023-05-19T00:59:57.064Z,453.9231
2023-05-19T01:00:58.601Z,453.0000
2023-05-19T01:01:59.924Z,453.1538
2023-05-19T01:03:01.371Z,450.9231
2023-05-19T01:04:02.868Z,453.4615
2023-05-19T01:05:04.174Z,453.0000
2023-05-19T01:06:05.542Z,452.6154
2023-05-19T01:07:07.013Z,453.5385
2023-05-19T01:08:08.468Z,453.1538
2023-05-19T01:09:09.847Z,455.3077
2023-05-19T01:10:11.250Z,456.4615
2023-05-19T01:11:12.723Z,453.1538
2023-05-19T01:12:14.122Z,450.3846
2023-05-19T01:13:15.621Z,450.6154
2023-05-19T01:14:16.880Z,448.8462
2023-05-19T01:15:18.419Z,450.0000
2023-05-19T01:16:19.888Z,449.7692
2023-05-19T01:17:21.250Z,450.3077
2023-05-19T01:18:22.643Z,452.2308
2023-05-19T01:19:24.137Z,452.1538
2023-05-19T01:20:25.485Z,452.0000
2023-05-19T01:21:27.028Z,452.3077
2023-05-19T01:22:28.357Z,452.5385
2023-05-19T01:23:29.793Z,453.4615
2023-05-19T01:24:31.195Z,454.9231
2023-05-19T01:25:32.656Z,455.3077
2023-05-19T01:26:34.059Z,454.9231
2023-05-19T01:27:50.302Z,453.1538
2023-05-19T01:28:36.895Z,452.9000
2023-05-19T01:29:38.291Z,451.5385
2023-05-19T01:30:39.810Z,449.5385
2023-05-19T01:31:41.310Z,450.0769
2023-05-19T01:32:42.651Z,449.3846
2023-05-19T01:33:44.020Z,449.2308
2023-05-19T01:34:45.480Z,452.2308
2023-05-19T01:35:46.814Z,453.3077
2023-05-19T01:36:48.298Z,452.8462
2023-05-19T01:37:49.690Z,453.9231
2023-05-19T01:38:51.195Z,455.7692
2023-05-19T01:39:52.605Z,456.3846
2023-05-19T01:40:54.043Z,455.1538
2023-05-19T01:41:55.514Z,454.0769
2023-05-19T01:42:57.866Z,456.0000
2023-05-19T01:43:58.268Z,455.7692
2023-05-19T01:44:59.643Z,453.9231
2023-05-19T01:46:01.149Z,454.1538
2023-05-19T01:47:02.593Z,449.6923
2023-05-19T01:48:04.007Z,450.2308
2023-05-19T01:49:05.439Z,451.1538
2023-05-19T01:50:06.809Z,451.6923
2023-05-19T01:51:08.288Z,453.1538
2023-05-19T01:52:09.733Z,452.8462
2023-05-19T01:53:11.150Z,451.3077
2023-05-19T01:54:12.559Z,452.2308
2023-05-19T01:55:14.061Z,453.9231
2023-05-19T01:56:15.378Z,452.6154
2023-05-19T01:57:16.849Z,452.3846
2023-05-19T01:58:18.203Z,452.8462
2023-05-19T01:59:19.643Z,454.6923
2023-05-19T02:00:21.406Z,455.7692
2023-05-19T02:01:22.470Z,454.3846
2023-05-19T02:02:24.014Z,453.0000
2023-05-19T02:03:25.397Z,451.7692
2023-05-19T02:04:26.917Z,452.2308
2023-05-19T02:05:28.209Z,454.0000
2023-05-19T02:06:29.623Z,452.3077
2023-05-19T02:07:30.983Z,452.0769
2023-05-19T02:08:32.474Z,451.6154
2023-05-19T02:09:33.918Z,449.2308
2023-05-19T02:10:35.338Z,451.6923
2023-05-19T02:11:36.721Z,450.3846
2023-05-19T02:12:38.266Z,450.2308
2023-05-19T02:13:39.564Z,449.5385
2023-05-19T02:14:41.045Z,448.3077
2023-05-19T02:15:42.539Z,448.6154
2023-05-19T02:16:43.821Z,449.6923
2023-05-19T02:17:45.366Z,451.3077
2023-05-19T02:18:46.714Z,454.0769
2023-05-19T02:19:48.171Z,455.4615
2023-05-19T02:20:49.548Z,454.6923
2023-05-19T02:21:50.990Z,454.9231
2023-05-19T02:22:52.375Z,455.7692
2023-05-19T02:23:53.869Z,453.9231
2023-05-19T02:24:55.288Z,454.8462
2023-05-19T02:25:56.800Z,454.6154
2023-05-19T02:26:58.083Z,454.5385
2023-05-19T02:27:59.679Z,452.3077
2023-05-19T02:29:01.097Z,454.7692
2023-05-19T02:30:02.530Z,452.7692
2023-05-19T02:31:03.921Z,451.2308
2023-05-19T02:32:05.494Z,453.1538
2023-05-19T02:33:06.856Z,453.2308
2023-05-19T02:34:08.207Z,451.6923
2023-05-19T02:35:09.649Z,451.3846
2023-05-19T02:36:11.009Z,450.3846
2023-05-19T02:37:12.456Z,451.4615
2023-05-19T02:38:13.911Z,452.2308
2023-05-19T02:39:15.260Z,452.4615
2023-05-19T02:40:16.640Z,453.0000
2023-05-19T02:41:18.107Z,451.4615
2023-05-19T02:42:19.486Z,452.8462
2023-05-19T02:43:21.033Z,452.9231
2023-05-19T02:44:22.468Z,453.7692
2023-05-19T02:45:23.805Z,451.3077
2023-05-19T02:46:25.309Z,449.2308
2023-05-19T02:47:26.712Z,451.1538
2023-05-19T02:48:28.281Z,448.8462
2023-05-19T02:49:29.559Z,448.6923
2023-05-19T02:50:31.215Z,451.5385
2023-05-19T02:51:32.456Z,449.0769
2023-05-19T02:52:33.910Z,446.2308
2023-05-19T02:53:35.286Z,445.6923
2023-05-19T02:54:36.685Z,447.0769
2023-05-19T02:55:38.112Z,447.9231
2023-05-19T02:56:39.578Z,448.8462
2023-05-19T02:57:41.017Z,449.6923
2023-05-19T02:58:42.480Z,450.0769
2023-05-19T02:59:43.868Z,450.3846
2023-05-19T03:00:45.313Z,449.1538
2023-05-19T03:01:46.722Z,448.6154
2023-05-19T03:02:48.216Z,451.2308
2023-05-19T03:03:49.676Z,452.7692
2023-05-19T03:04:51.010Z,451.0769
2023-05-19T03:05:52.471Z,452.0769
2023-05-19T03:06:53.826Z,452.6154
2023-05-19T03:07:55.322Z,453.7692
2023-05-19T03:08:57.266Z,453.7692
2023-05-19T03:09:58.141Z,450.8462
2023-05-19T03:10:59.553Z,449.0769
2023-05-19T03:12:00.993Z,450.1538
2023-05-19T03:13:02.404Z,450.4615
2023-05-19T03:14:03.874Z,451.6923
2023-05-19T03:15:05.252Z,451.3846
2023-05-19T03:16:06.782Z,451.3846
2023-05-19T03:17:08.328Z,451.6923
2023-05-19T03:18:09.629Z,451.8462
2023-05-19T03:19:11.023Z,450.5385
2023-05-19T03:20:12.534Z,451.3846
2023-05-19T03:21:13.792Z,452.3077
2023-05-19T03:22:15.236Z,450.5385
2023-05-19T03:23:16.629Z,450.6923
2023-05-19T03:24:18.250Z,451.8462
2023-05-19T03:25:19.443Z,452.0000
2023-05-19T03:26:20.953Z,452.6923
2023-05-19T03:27:22.379Z,451.2308
2023-05-19T03:28:23.794Z,452.3077
2023-05-19T03:29:25.262Z,452.4615
2023-05-19T03:30:26.695Z,454.6923
2023-05-19T03:31:28.066Z,454.0000
2023-05-19T03:32:29.590Z,451.8462
2023-05-19T03:33:31.084Z,450.5385
2023-05-19T03:34:32.377Z,449.5385
2023-05-19T03:35:33.764Z,449.8462
2023-05-19T03:36:35.192Z,448.6154
2023-05-19T03:37:36.612Z,449.7692
2023-05-19T03:38:37.969Z,451.1538
2023-05-19T03:39:40.385Z,451.3077
2023-05-19T03:40:40.951Z,451.4615
2023-05-19T03:41:42.268Z,453.3077
2023-05-19T03:42:43.751Z,451.4615
2023-05-19T03:43:45.140Z,448.7692
2023-05-19T03:44:46.610Z,447.4615
2023-05-19T03:45:48.053Z,447.1538
2023-05-19T03:46:49.488Z,451.6923
2023-05-19T03:47:50.902Z,455.1538
2023-05-19T03:48:52.381Z,455.7692
2023-05-19T03:49:53.736Z,455.3077
2023-05-19T03:50:55.270Z,451.5385
2023-05-19T03:51:56.537Z,450.0000
2023-05-19T03:52:58.100Z,450.8462
2023-05-19T03:53:59.403Z,452.3077
2023-05-19T03:55:00.901Z,450.3846
2023-05-19T03:56:02.283Z,449.7692
2023-05-19T03:57:03.722Z,449.8462
2023-05-19T03:58:05.037Z,448.6154
2023-05-19T03:59:06.542Z,449.6154
2023-05-19T04:00:08.007Z,450.4615
2023-05-19T04:01:09.433Z,449.7692
2023-05-19T04:02:10.929Z,449.3077
2023-05-19T04:03:12.270Z,449.6923
2023-05-19T04:04:13.726Z,450.1538
2023-05-19T04:05:15.141Z,449.0000
2023-05-19T04:06:16.404Z,450.8462
2023-05-19T04:07:17.930Z,451.0000
2023-05-19T04:08:19.334Z,449.0000
2023-05-19T04:09:20.718Z,446.5385
2023-05-19T04:10:22.305Z,447.5385
2023-05-19T04:11:23.572Z,448.8462
2023-05-19T04:12:25.079Z,448.1538
2023-05-19T04:13:26.395Z,445.7692
2023-05-19T04:14:27.896Z,444.3077
2023-05-19T04:15:29.366Z,446.0000
2023-05-19T04:16:30.929Z,445.9231
2023-05-19T04:17:32.223Z,446.6154
2023-05-19T04:18:33.593Z,450.3846
2023-05-19T04:19:34.981Z,450.0000
2023-05-19T04:20:36.455Z,447.8462
2023-05-19T04:21:37.820Z,448.6154
2023-05-19T04:22:39.270Z,448.2308
2023-05-19T04:23:40.777Z,448.8462
2023-05-19T04:24:42.166Z,448.6154
2023-05-19T04:25:43.534Z,447.0000
2023-05-19T04:26:45.014Z,447.5385
2023-05-19T04:27:46.453Z,447.9231
2023-05-19T04:28:47.860Z,450.0000
2023-05-19T04:29:49.208Z,448.5385
2023-05-19T04:30:50.742Z,449.3846
2023-05-19T04:31:52.062Z,447.9231
2023-05-19T04:32:53.572Z,450.6923
2023-05-19T04:33:55.010Z,450.8462
2023-05-19T04:34:56.365Z,450.9231
2023-05-19T04:35:57.836Z,449.5385
2023-05-19T04:36:59.284Z,450.9231
2023-05-19T04:38:00.577Z,449.0000
2023-05-19T04:39:02.115Z,447.6923
2023-05-19T04:40:03.568Z,448.0769
2023-05-19T04:41:04.990Z,447.6923
2023-05-19T04:42:06.299Z,448.0000
2023-05-19T04:43:07.887Z,450.4615
2023-05-19T04:44:09.337Z,450.1538
2023-05-19T04:45:10.516Z,448.5385
2023-05-19T04:46:13.414Z,449.1538
2023-05-19T04:47:13.593Z,447.7692
2023-05-19T04:48:14.984Z,448.0000
2023-05-19T04:49:16.293Z,446.2308
2023-05-19T04:50:17.750Z,447.8462
2023-05-19T04:51:19.177Z,448.3846
2023-05-19T04:52:20.624Z,447.3846
2023-05-19T04:53:22.018Z,447.3077
2023-05-19T04:54:23.348Z,448.1538
2023-05-19T04:55:24.800Z,447.4615
2023-05-19T04:56:26.331Z,446.8462
2023-05-19T04:57:27.708Z,444.6923
2023-05-19T04:58:29.118Z,445.6923
2023-05-19T04:59:30.558Z,445.2308
2023-05-19T05:00:32.111Z,445.6923
2023-05-19T05:01:33.362Z,445.3077
2023-05-19T05:02:34.930Z,445.6154
2023-05-19T05:03:36.211Z,447.3077
2023-05-19T05:04:37.717Z,446.7692
2023-05-19T05:05:39.025Z,446.2308
2023-05-19T05:06:40.546Z,447.1538
2023-05-19T05:07:41.937Z,446.8462
2023-05-19T05:08:43.313Z,446.0000
2023-05-19T05:09:44.796Z,449.4615
2023-05-19T05:10:46.175Z,451.2308
2023-05-19T05:11:47.590Z,451.6923
2023-05-19T05:12:49.005Z,449.7692
2023-05-19T05:13:50.404Z,449.7692
2023-05-19T05:14:51.796Z,449.0000
2023-05-19T05:15:53.166Z,447.8462
2023-05-19T05:16:54.761Z,446.3846
2023-05-19T05:17:56.207Z,447.2308
2023-05-19T05:18:57.640Z,446.1538
2023-05-19T05:19:59.016Z,446.7692
2023-05-19T05:21:00.347Z,447.5385
2023-05-19T05:22:01.812Z,447.9231
2023-05-19T05:23:03.225Z,449.6154
2023-05-19T05:24:04.657Z,449.7692
2023-05-19T05:25:06.010Z,450.3846
2023-05-19T05:26:07.537Z,446.8462
2023-05-19T05:27:08.898Z,448.8462
2023-05-19T05:28:10.380Z,448.0769
2023-05-19T05:29:11.747Z,449.1538
2023-05-19T05:30:13.242Z,451.0000
2023-05-19T05:31:14.565Z,448.3077
2023-05-19T05:32:16.104Z,445.9231
2023-05-19T05:33:17.626Z,445.3846
2023-05-19T05:34:18.895Z,446.0769
2023-05-19T05:35:20.397Z,445.9231
2023-05-19T05:36:21.740Z,445.1538
2023-05-19T05:37:23.174Z,446.1538
2023-05-19T05:38:24.615Z,446.0769
2023-05-19T05:39:25.995Z,446.4615
2023-05-19T05:40:27.428Z,447.0000
2023-05-19T05:41:28.801Z,448.3077
2023-05-19T05:42:30.388Z,450.3846
2023-05-19T05:43:31.737Z,450.0000
2023-05-19T05:44:33.128Z,449.6923
2023-05-19T05:45:34.711Z,451.2308
2023-05-19T05:46:35.865Z,451.5385
2023-05-19T05:47:37.389Z,451.5385
2023-05-19T05:48:38.890Z,451.1538
2023-05-19T05:49:40.154Z,449.9231
2023-05-19T05:50:41.613Z,447.4615
2023-05-19T05:51:48.456Z,444.7692
2023-05-19T05:52:44.530Z,444.8333
2023-05-19T05:53:45.919Z,445.2308
2023-05-19T05:54:47.395Z,444.3077
2023-05-19T05:55:48.771Z,445.6154
2023-05-19T05:56:50.226Z,445.4615
2023-05-19T05:57:51.593Z,445.6923
2023-05-19T05:58:53.036Z,447.9231
2023-05-19T05:59:54.445Z,447.0769
2023-05-19T06:00:55.832Z,446.9231
2023-05-19T06:01:57.248Z,446.5385
2023-05-19T06:02:58.882Z,446.8462
2023-05-19T06:04:00.141Z,447.5385
2023-05-19T06:05:01.613Z,446.6923
2023-05-19T06:06:03.010Z,445.7692
2023-05-19T06:07:04.337Z,444.0769
2023-05-19T06:08:05.874Z,444.9231
2023-05-19T06:09:07.256Z,445.9231
2023-05-19T06:10:08.581Z,448.3846
2023-05-19T06:11:10.058Z,446.7692
2023-05-19T06:12:11.470Z,446.6923
2023-05-19T06:13:13.019Z,447.5385
2023-05-19T06:14:14.335Z,448.8462
2023-05-19T06:15:15.776Z,450.1538
2023-05-19T06:16:17.208Z,450.9231
2023-05-19T06:17:18.602Z,450.6923
2023-05-19T06:18:20.054Z,450.0000
2023-05-19T06:19:21.460Z,451.6154
2023-05-19T06:20:22.887Z,451.3846
2023-05-19T06:21:24.248Z,453.0000
2023-05-19T06:22:25.709Z,451.6923
2023-05-19T06:23:27.168Z,452.8462
2023-05-19T06:24:28.635Z,452.0000
2023-05-19T06:25:29.968Z,450.3077
2023-05-19T06:26:31.283Z,448.8462
2023-05-19T06:27:34.644Z,446.5385
2023-05-19T06:28:34.245Z,448.5385
2023-05-19T06:29:35.793Z,446.1538
2023-05-19T06:30:37.160Z,443.0000
2023-05-19T06:31:38.488Z,441.4615
2023-05-19T06:32:40.044Z,439.5385
2023-05-19T06:33:41.521Z,436.6154
2023-05-19T06:34:42.943Z,435.1538
2023-05-19T06:35:44.261Z,435.9231
2023-05-19T06:36:45.767Z,435.0000
2023-05-19T06:37:47.118Z,434.9231
2023-05-19T06:38:49.398Z,432.5385
2023-05-19T06:39:49.968Z,435.6923
2023-05-19T06:40:51.409Z,432.6923
2023-05-19T06:41:52.786Z,428.0000
2023-05-19T06:42:54.115Z,426.5385
2023-05-19T06:43:55.682Z,427.1538
2023-05-19T06:44:57.097Z,428.3846
2023-05-19T06:45:58.355Z,429.1538
2023-05-19T06:46:59.892Z,429.0000
2023-05-19T06:48:01.349Z,431.0769
2023-05-19T06:49:02.756Z,429.1538
2023-05-19T06:50:04.185Z,428.6154
2023-05-19T06:51:05.834Z,426.8462
2023-05-19T06:52:06.974Z,426.3077
2023-05-19T06:53:08.419Z,426.4615
2023-05-19T06:54:09.880Z,424.1538
2023-05-19T06:55:11.906Z,424.9231
2023-05-19T06:56:12.758Z,424.7692
2023-05-19T06:57:14.105Z,423.3077
2023-05-19T06:58:15.529Z,425.0000
2023-05-19T06:59:17.044Z,426.0000
2023-05-19T07:00:19.954Z,425.0769
2023-05-19T07:01:19.793Z,426.0769
2023-05-19T07:02:21.184Z,429.0769
2023-05-19T07:03:22.805Z,428.3077
2023-05-19T07:04:24.088Z,422.5385
2023-05-19T07:05:26.449Z,423.0769
2023-05-19T07:06:26.865Z,421.8462
2023-05-19T07:07:28.240Z,423.6154
2023-05-19T07:08:29.764Z,423.6923
2023-05-19T07:09:31.227Z,425.0769
2023-05-19T07:10:32.824Z,420.4615
2023-05-19T07:11:33.973Z,420.3077
2023-05-19T07:12:35.394Z,420.3846
2023-05-19T07:13:36.868Z,420.1538
2023-05-19T07:14:38.318Z,418.5385
2023-05-19T07:15:39.782Z,419.2308
2023-05-19T07:16:41.128Z,421.2308
2023-05-19T07:17:42.570Z,423.6154
2023-05-19T07:18:44.044Z,420.0769
2023-05-19T07:19:45.381Z,415.3077
2023-05-19T07:20:46.884Z,417.0000
2023-05-19T07:21:48.258Z,419.6923
2023-05-19T07:22:49.615Z,418.0769
2023-05-19T07:23:51.076Z,418.6923
2023-05-19T07:24:52.555Z,420.0769
2023-05-19T07:25:54.415Z,417.8462
2023-05-19T07:26:55.382Z,418.6154
2023-05-19T07:27:56.777Z,420.0000
2023-05-19T07:28:58.230Z,419.4615
2023-05-19T07:29:59.617Z,418.5385
2023-05-19T07:31:01.187Z,419.3077
2023-05-19T07:32:02.567Z,420.0769
2023-05-19T07:33:03.919Z,422.7692
2023-05-19T07:34:05.330Z,421.7692
2023-05-19T07:35:06.688Z,420.6923
2023-05-19T07:36:08.210Z,427.0769
2023-05-19T07:37:09.512Z,430.3077
2023-05-19T07:38:11.091Z,460.3077
2023-05-19T07:39:12.433Z,482.4615
2023-05-19T07:40:13.865Z,468.7692
2023-05-19T07:41:15.333Z,458.0000
2023-05-19T07:42:16.642Z,452.9231
2023-05-19T07:43:17.987Z,449.9231
2023-05-19T07:44:19.538Z,448.6154
2023-05-19T07:45:21.008Z,449.4615
2023-05-19T07:46:22.550Z,446.7692
